sensor_id;sensor_type;location;lat;lon;timestamp;P1;P2;P0
64229;PMS5003;50547;49.498;0.092;2023-09-12T00:01:56;11;11;
64229;PMS5003;50547;49.498;0.092;2023-09-12T00:04:25;11;11;
64229;PMS5003;50547;49.498;0.092;2023-09-12T00:06:54;11;11;
64229;PMS5003;50547;49.498;0.092;2023-09-12T00:09:23;10;10;
64229;PMS5003;50547;49.498;0.092;2023-09-12T00:11:52;10;10;
64229;PMS5003;50547;49.498;0.092;2023-09-12T00:14:21;10;10;
64229;PMS5003;50547;49.498;0.092;2023-09-12T00:16:50;10;10;
64229;PMS5003;50547;49.498;0.092;2023-09-12T00:19:19;10;10;
64229;PMS5003;50547;49.498;0.092;2023-09-12T00:21:48;10;10;
64229;PMS5003;50547;49.498;0.092;2023-09-12T00:24:17;10;10;
64229;PMS5003;50547;49.498;0.092;2023-09-12T00:26:46;10;10;
64229;PMS5003;50547;49.498;0.092;2023-09-12T00:29:15;10;10;
64229;PMS5003;50547;49.498;0.092;2023-09-12T00:31:44;10;10;
64229;PMS5003;50547;49.498;0.092;2023-09-12T00:34:15;11;11;
64229;PMS5003;50547;49.498;0.092;2023-09-12T00:36:44;10;10;
64229;PMS5003;50547;49.498;0.092;2023-09-12T00:39:13;11;11;
64229;PMS5003;50547;49.498;0.092;2023-09-12T00:41:42;11;11;
64229;PMS5003;50547;49.498;0.092;2023-09-12T00:44:11;11;11;
64229;PMS5003;50547;49.498;0.092;2023-09-12T00:46:40;10;10;
64229;PMS5003;50547;49.498;0.092;2023-09-12T00:49:12;10;10;
64229;PMS5003;50547;49.498;0.092;2023-09-12T00:51:42;10;10;
64229;PMS5003;50547;49.498;0.092;2023-09-12T00:54:13;10;10;
64229;PMS5003;50547;49.498;0.092;2023-09-12T00:56:42;10;10;
64229;PMS5003;50547;49.498;0.092;2023-09-12T00:59:11;10;10;
64229;PMS5003;50547;49.498;0.092;2023-09-12T01:01:41;8;8;
64229;PMS5003;50547;49.498;0.092;2023-09-12T01:04:10;9;9;
64229;PMS5003;50547;49.498;0.092;2023-09-12T01:06:40;10;10;
64229;PMS5003;50547;49.498;0.092;2023-09-12T01:09:09;10;10;
64229;PMS5003;50547;49.498;0.092;2023-09-12T01:11:38;10;10;
64229;PMS5003;50547;49.498;0.092;2023-09-12T01:14:07;10;10;
64229;PMS5003;50547;49.498;0.092;2023-09-12T01:16:36;10;10;
64229;PMS5003;50547;49.498;0.092;2023-09-12T01:19:05;10;10;
64229;PMS5003;50547;49.498;0.092;2023-09-12T01:21:40;10;10;
64229;PMS5003;50547;49.498;0.092;2023-09-12T01:24:38;11;11;
64229;PMS5003;50547;49.498;0.092;2023-09-12T01:27:34;11;11;
64229;PMS5003;50547;49.498;0.092;2023-09-12T01:30:06;11;11;
64229;PMS5003;50547;49.498;0.092;2023-09-12T01:32:37;11;11;
64229;PMS5003;50547;49.498;0.092;2023-09-12T01:35:08;11;11;
64229;PMS5003;50547;49.498;0.092;2023-09-12T01:37:37;11;11;
64229;PMS5003;50547;49.498;0.092;2023-09-12T01:40:06;11;11;
64229;PMS5003;50547;49.498;0.092;2023-09-12T01:42:37;11;11;
64229;PMS5003;50547;49.498;0.092;2023-09-12T01:45:09;11;11;
64229;PMS5003;50547;49.498;0.092;2023-09-12T01:47:40;11;11;
64229;PMS5003;50547;49.498;0.092;2023-09-12T01:50:10;11;11;
64229;PMS5003;50547;49.498;0.092;2023-09-12T01:52:41;11;11;
64229;PMS5003;50547;49.498;0.092;2023-09-12T01:55:10;11;11;
64229;PMS5003;50547;49.498;0.092;2023-09-12T01:57:40;11;11;
64229;PMS5003;50547;49.498;0.092;2023-09-12T02:00:10;11;11;
64229;PMS5003;50547;49.498;0.092;2023-09-12T02:02:41;11;11;
64229;PMS5003;50547;49.498;0.092;2023-09-12T02:05:11;11;11;
64229;PMS5003;50547;49.498;0.092;2023-09-12T02:07:43;11;11;
64229;PMS5003;50547;49.498;0.092;2023-09-12T02:10:13;11;11;
64229;PMS5003;50547;49.498;0.092;2023-09-12T02:12:42;11;11;
64229;PMS5003;50547;49.498;0.092;2023-09-12T02:15:11;11;11;
64229;PMS5003;50547;49.498;0.092;2023-09-12T02:17:40;11;11;
64229;PMS5003;50547;49.498;0.092;2023-09-12T02:20:10;11;11;
64229;PMS5003;50547;49.498;0.092;2023-09-12T02:22:39;11;11;
64229;PMS5003;50547;49.498;0.092;2023-09-12T02:25:08;11;11;
64229;PMS5003;50547;49.498;0.092;2023-09-12T02:27:37;11;11;
64229;PMS5003;50547;49.498;0.092;2023-09-12T02:30:07;11;11;
64229;PMS5003;50547;49.498;0.092;2023-09-12T02:32:36;13;13;
64229;PMS5003;50547;49.498;0.092;2023-09-12T02:35:05;11;11;
64229;PMS5003;50547;49.498;0.092;2023-09-12T02:37:35;11;11;
64229;PMS5003;50547;49.498;0.092;2023-09-12T02:40:04;13;13;
64229;PMS5003;50547;49.498;0.092;2023-09-12T02:42:34;11;11;
64229;PMS5003;50547;49.498;0.092;2023-09-12T02:45:04;11;11;
64229;PMS5003;50547;49.498;0.092;2023-09-12T02:47:34;11;11;
64229;PMS5003;50547;49.498;0.092;2023-09-12T02:50:03;11;11;
64229;PMS5003;50547;49.498;0.092;2023-09-12T02:52:32;11;11;
64229;PMS5003;50547;49.498;0.092;2023-09-12T02:55:01;11;11;
64229;PMS5003;50547;49.498;0.092;2023-09-12T02:57:30;13;13;
64229;PMS5003;50547;49.498;0.092;2023-09-12T02:59:59;11;11;
64229;PMS5003;50547;49.498;0.092;2023-09-12T03:02:28;13;13;
64229;PMS5003;50547;49.498;0.092;2023-09-12T03:04:57;13;13;
64229;PMS5003;50547;49.498;0.092;2023-09-12T03:07:26;12;12;
64229;PMS5003;50547;49.498;0.092;2023-09-12T03:09:55;11;11;
64229;PMS5003;50547;49.498;0.092;2023-09-12T03:12:24;13;13;
64229;PMS5003;50547;49.498;0.092;2023-09-12T03:14:53;13;13;
64229;PMS5003;50547;49.498;0.092;2023-09-12T03:17:22;13;13;
64229;PMS5003;50547;49.498;0.092;2023-09-12T03:19:51;13;13;
64229;PMS5003;50547;49.498;0.092;2023-09-12T03:22:20;13;13;
64229;PMS5003;50547;49.498;0.092;2023-09-12T03:24:49;13;13;
64229;PMS5003;50547;49.498;0.092;2023-09-12T03:27:18;13;13;
64229;PMS5003;50547;49.498;0.092;2023-09-12T03:29:47;13;13;
64229;PMS5003;50547;49.498;0.092;2023-09-12T03:32:16;13;13;
64229;PMS5003;50547;49.498;0.092;2023-09-12T03:34:45;13;13;
64229;PMS5003;50547;49.498;0.092;2023-09-12T03:37:14;13;13;
64229;PMS5003;50547;49.498;0.092;2023-09-12T03:39:43;13;13;
64229;PMS5003;50547;49.498;0.092;2023-09-12T03:42:12;13;13;
64229;PMS5003;50547;49.498;0.092;2023-09-12T03:44:41;13;13;
64229;PMS5003;50547;49.498;0.092;2023-09-12T03:47:10;13;13;
64229;PMS5003;50547;49.498;0.092;2023-09-12T03:49:39;13;13;
64229;PMS5003;50547;49.498;0.092;2023-09-12T03:52:08;13;13;
64229;PMS5003;50547;49.498;0.092;2023-09-12T03:54:37;13;13;
64229;PMS5003;50547;49.498;0.092;2023-09-12T03:57:06;11;11;
64229;PMS5003;50547;49.498;0.092;2023-09-12T03:59:35;11;11;
64229;PMS5003;50547;49.498;0.092;2023-09-12T04:02:04;11;11;
64229;PMS5003;50547;49.498;0.092;2023-09-12T04:04:33;11;11;
64229;PMS5003;50547;49.498;0.092;2023-09-12T04:07:02;11;11;
64229;PMS5003;50547;49.498;0.092;2023-09-12T04:09:31;11;11;
64229;PMS5003;50547;49.498;0.092;2023-09-12T04:12:00;13;13;
64229;PMS5003;50547;49.498;0.092;2023-09-12T04:14:29;11;11;
64229;PMS5003;50547;49.498;0.092;2023-09-12T04:16:58;11;11;
64229;PMS5003;50547;49.498;0.092;2023-09-12T04:19:27;11;11;
64229;PMS5003;50547;49.498;0.092;2023-09-12T04:21:56;13;13;
64229;PMS5003;50547;49.498;0.092;2023-09-12T04:24:25;13;13;
64229;PMS5003;50547;49.498;0.092;2023-09-12T04:26:54;13;13;
64229;PMS5003;50547;49.498;0.092;2023-09-12T04:29:23;13;13;
64229;PMS5003;50547;49.498;0.092;2023-09-12T04:31:52;13;13;
64229;PMS5003;50547;49.498;0.092;2023-09-12T04:34:21;13;13;
64229;PMS5003;50547;49.498;0.092;2023-09-12T04:36:50;15;14;
64229;PMS5003;50547;49.498;0.092;2023-09-12T04:39:19;18;16;
64229;PMS5003;50547;49.498;0.092;2023-09-12T04:41:48;18;16;
64229;PMS5003;50547;49.498;0.092;2023-09-12T04:44:17;18;16;
64229;PMS5003;50547;49.498;0.092;2023-09-12T04:46:46;18;16;
64229;PMS5003;50547;49.498;0.092;2023-09-12T04:49:16;19;17;
64229;PMS5003;50547;49.498;0.092;2023-09-12T04:51:45;20;17;
64229;PMS5003;50547;49.498;0.092;2023-09-12T04:54:14;19;17;
64229;PMS5003;50547;49.498;0.092;2023-09-12T04:56:40;20;17;
64229;PMS5003;50547;49.498;0.092;2023-09-12T04:59:09;18;16;
64229;PMS5003;50547;49.498;0.092;2023-09-12T05:01:38;17;15;
64229;PMS5003;50547;49.498;0.092;2023-09-12T05:04:07;18;16;
64229;PMS5003;50547;49.498;0.092;2023-09-12T05:06:36;18;16;
64229;PMS5003;50547;49.498;0.092;2023-09-12T05:09:05;18;16;
64229;PMS5003;50547;49.498;0.092;2023-09-12T05:11:34;18;16;
64229;PMS5003;50547;49.498;0.092;2023-09-12T05:14:04;17;15;
64229;PMS5003;50547;49.498;0.092;2023-09-12T05:16:33;17;15;
64229;PMS5003;50547;49.498;0.092;2023-09-12T05:19:02;17;15;
64229;PMS5003;50547;49.498;0.092;2023-09-12T05:21:28;18;16;
64229;PMS5003;50547;49.498;0.092;2023-09-12T05:23:57;18;16;
64229;PMS5003;50547;49.498;0.092;2023-09-12T05:26:26;17;15;
64229;PMS5003;50547;49.498;0.092;2023-09-12T05:28:52;17;15;
64229;PMS5003;50547;49.498;0.092;2023-09-12T05:31:21;18;16;
64229;PMS5003;50547;49.498;0.092;2023-09-12T05:33:50;17;15;
64229;PMS5003;50547;49.498;0.092;2023-09-12T05:36:19;18;16;
64229;PMS5003;50547;49.498;0.092;2023-09-12T05:38:48;18;16;
64229;PMS5003;50547;49.498;0.092;2023-09-12T05:41:17;18;16;
64229;PMS5003;50547;49.498;0.092;2023-09-12T05:43:46;18;16;
64229;PMS5003;50547;49.498;0.092;2023-09-12T05:46:12;20;17;
64229;PMS5003;50547;49.498;0.092;2023-09-12T05:48:41;20;17;
64229;PMS5003;50547;49.498;0.092;2023-09-12T05:51:10;20;17;
64229;PMS5003;50547;49.498;0.092;2023-09-12T05:53:36;20;17;
64229;PMS5003;50547;49.498;0.092;2023-09-12T05:56:05;21;18;
64229;PMS5003;50547;49.498;0.092;2023-09-12T05:58:34;20;17;
64229;PMS5003;50547;49.498;0.092;2023-09-12T06:01:03;20;17;
64229;PMS5003;50547;49.498;0.092;2023-09-12T06:03:32;22;19;
64229;PMS5003;50547;49.498;0.092;2023-09-12T06:06:01;20;17;
64229;PMS5003;50547;49.498;0.092;2023-09-12T06:08:30;20;17;
64229;PMS5003;50547;49.498;0.092;2023-09-12T06:10:59;20;17;
64229;PMS5003;50547;49.498;0.092;2023-09-12T06:13:28;20;17;
64229;PMS5003;50547;49.498;0.092;2023-09-12T06:15:57;20;17;
64229;PMS5003;50547;49.498;0.092;2023-09-12T06:18:26;18;16;
64229;PMS5003;50547;49.498;0.092;2023-09-12T06:20:55;17;15;
64229;PMS5003;50547;49.498;0.092;2023-09-12T06:23:24;18;16;
64229;PMS5003;50547;49.498;0.092;2023-09-12T06:25:53;17;15;
64229;PMS5003;50547;49.498;0.092;2023-09-12T06:28:25;15;14;
64229;PMS5003;50547;49.498;0.092;2023-09-12T06:30:55;15;14;
64229;PMS5003;50547;49.498;0.092;2023-09-12T06:33:24;15;14;
64229;PMS5003;50547;49.498;0.092;2023-09-12T06:35:54;18;16;
64229;PMS5003;50547;49.498;0.092;2023-09-12T06:38:23;18;16;
64229;PMS5003;50547;49.498;0.092;2023-09-12T06:40:52;18;16;
64229;PMS5003;50547;49.498;0.092;2023-09-12T06:43:21;18;16;
64229;PMS5003;50547;49.498;0.092;2023-09-12T06:45:50;18;16;
64229;PMS5003;50547;49.498;0.092;2023-09-12T06:48:19;18;16;
64229;PMS5003;50547;49.498;0.092;2023-09-12T06:50:48;18;16;
64229;PMS5003;50547;49.498;0.092;2023-09-12T06:53:17;18;16;
64229;PMS5003;50547;49.498;0.092;2023-09-12T06:55:46;18;16;
64229;PMS5003;50547;49.498;0.092;2023-09-12T06:58:15;18;16;
64229;PMS5003;50547;49.498;0.092;2023-09-12T07:00:44;19;17;
64229;PMS5003;50547;49.498;0.092;2023-09-12T07:03:13;18;16;
64229;PMS5003;50547;49.498;0.092;2023-09-12T07:05:42;17;15;
64229;PMS5003;50547;49.498;0.092;2023-09-12T07:08:11;18;16;
64229;PMS5003;50547;49.498;0.092;2023-09-12T07:10:43;18;16;
64229;PMS5003;50547;49.498;0.092;2023-09-12T07:13:12;18;16;
64229;PMS5003;50547;49.498;0.092;2023-09-12T07:15:41;18;16;
64229;PMS5003;50547;49.498;0.092;2023-09-12T07:18:10;18;16;
64229;PMS5003;50547;49.498;0.092;2023-09-12T07:20:39;20;17;
64229;PMS5003;50547;49.498;0.092;2023-09-12T07:23:08;18;16;
64229;PMS5003;50547;49.498;0.092;2023-09-12T07:25:38;19;17;
64229;PMS5003;50547;49.498;0.092;2023-09-12T07:28:07;19;17;
64229;PMS5003;50547;49.498;0.092;2023-09-12T07:30:35;20;17;
64229;PMS5003;50547;49.498;0.092;2023-09-12T07:33:04;19;17;
64229;PMS5003;50547;49.498;0.092;2023-09-12T07:35:33;17;15;
64229;PMS5003;50547;49.498;0.092;2023-09-12T07:38:02;13;13;
64229;PMS5003;50547;49.498;0.092;2023-09-12T07:40:32;14;14;
64229;PMS5003;50547;49.498;0.092;2023-09-12T07:43:01;13;13;
64229;PMS5003;50547;49.498;0.092;2023-09-12T07:45:30;13;13;
64229;PMS5003;50547;49.498;0.092;2023-09-12T07:47:59;14;14;
64229;PMS5003;50547;49.498;0.092;2023-09-12T07:50:28;13;13;
64229;PMS5003;50547;49.498;0.092;2023-09-12T07:52:58;13;13;
64229;PMS5003;50547;49.498;0.092;2023-09-12T07:55:26;13;13;
64229;PMS5003;50547;49.498;0.092;2023-09-12T07:57:56;13;13;
64229;PMS5003;50547;49.498;0.092;2023-09-12T08:00:25;11;11;
64229;PMS5003;50547;49.498;0.092;2023-09-12T08:02:54;11;11;
64229;PMS5003;50547;49.498;0.092;2023-09-12T08:05:23;11;11;
64229;PMS5003;50547;49.498;0.092;2023-09-12T08:07:52;11;11;
64229;PMS5003;50547;49.498;0.092;2023-09-12T08:10:21;13;13;
64229;PMS5003;50547;49.498;0.092;2023-09-12T08:12:50;11;11;
64229;PMS5003;50547;49.498;0.092;2023-09-12T08:15:19;14;14;
64229;PMS5003;50547;49.498;0.092;2023-09-12T08:17:48;13;13;
64229;PMS5003;50547;49.498;0.092;2023-09-12T08:20:17;13;13;
64229;PMS5003;50547;49.498;0.092;2023-09-12T08:22:46;13;13;
64229;PMS5003;50547;49.498;0.092;2023-09-12T08:25:16;12;12;
64229;PMS5003;50547;49.498;0.092;2023-09-12T08:27:45;13;13;
64229;PMS5003;50547;49.498;0.092;2023-09-12T08:30:15;11;11;
64229;PMS5003;50547;49.498;0.092;2023-09-12T08:32:49;13;13;
64229;PMS5003;50547;49.498;0.092;2023-09-12T08:35:18;11;11;
64229;PMS5003;50547;49.498;0.092;2023-09-12T08:37:48;13;13;
64229;PMS5003;50547;49.498;0.092;2023-09-12T08:40:17;13;13;
64229;PMS5003;50547;49.498;0.092;2023-09-12T08:42:46;11;11;
64229;PMS5003;50547;49.498;0.092;2023-09-12T08:45:17;11;11;
64229;PMS5003;50547;49.498;0.092;2023-09-12T08:47:49;11;11;
64229;PMS5003;50547;49.498;0.092;2023-09-12T08:50:20;13;13;
64229;PMS5003;50547;49.498;0.092;2023-09-12T08:52:49;13;13;
64229;PMS5003;50547;49.498;0.092;2023-09-12T08:55:19;13;13;
64229;PMS5003;50547;49.498;0.092;2023-09-12T08:57:50;13;13;
64229;PMS5003;50547;49.498;0.092;2023-09-12T09:00:19;13;13;
64229;PMS5003;50547;49.498;0.092;2023-09-12T09:02:49;11;11;
64229;PMS5003;50547;49.498;0.092;2023-09-12T09:05:20;11;11;
64229;PMS5003;50547;49.498;0.092;2023-09-12T09:07:56;10;10;
64229;PMS5003;50547;49.498;0.092;2023-09-12T09:10:26;8;8;
64229;PMS5003;50547;49.498;0.092;2023-09-12T09:12:55;10;10;
64229;PMS5003;50547;49.498;0.092;2023-09-12T09:15:25;10;10;
64229;PMS5003;50547;49.498;0.092;2023-09-12T09:17:55;10;10;
64229;PMS5003;50547;49.498;0.092;2023-09-12T09:20:25;10;10;
64229;PMS5003;50547;49.498;0.092;2023-09-12T09:22:56;10;10;
64229;PMS5003;50547;49.498;0.092;2023-09-12T09:25:27;8;8;
64229;PMS5003;50547;49.498;0.092;2023-09-12T09:27:56;6;6;
64229;PMS5003;50547;49.498;0.092;2023-09-12T09:30:38;5;5;
64229;PMS5003;50547;49.498;0.092;2023-09-12T09:33:09;4;4;
64229;PMS5003;50547;49.498;0.092;2023-09-12T09:35:40;4;4;
64229;PMS5003;50547;49.498;0.092;2023-09-12T09:38:10;4;4;
64229;PMS5003;50547;49.498;0.092;2023-09-12T09:40:39;4;4;
64229;PMS5003;50547;49.498;0.092;2023-09-12T09:43:09;4;4;
64229;PMS5003;50547;49.498;0.092;2023-09-12T09:45:42;4;4;
64229;PMS5003;50547;49.498;0.092;2023-09-12T09:48:17;3;3;
64229;PMS5003;50547;49.498;0.092;2023-09-12T09:50:47;3;3;
64229;PMS5003;50547;49.498;0.092;2023-09-12T09:53:17;4;4;
64229;PMS5003;50547;49.498;0.092;2023-09-12T09:55:46;4;4;
64229;PMS5003;50547;49.498;0.092;2023-09-12T09:58:15;4;4;
64229;PMS5003;50547;49.498;0.092;2023-09-12T10:00:44;4;4;
64229;PMS5003;50547;49.498;0.092;2023-09-12T10:03:14;4;4;
64229;PMS5003;50547;49.498;0.092;2023-09-12T10:05:47;4;4;
64229;PMS5003;50547;49.498;0.092;2023-09-12T10:08:19;4;4;
64229;PMS5003;50547;49.498;0.092;2023-09-12T10:10:52;3;3;
64229;PMS5003;50547;49.498;0.092;2023-09-12T10:13:21;4;4;
64229;PMS5003;50547;49.498;0.092;2023-09-12T10:15:51;4;4;
64229;PMS5003;50547;49.498;0.092;2023-09-12T10:18:23;4;4;
64229;PMS5003;50547;49.498;0.092;2023-09-12T10:20:58;4;4;
64229;PMS5003;50547;49.498;0.092;2023-09-12T10:23:34;4;4;
64229;PMS5003;50547;49.498;0.092;2023-09-12T10:26:09;4;4;
64229;PMS5003;50547;49.498;0.092;2023-09-12T10:28:40;4;4;
64229;PMS5003;50547;49.498;0.092;2023-09-12T10:31:10;4;4;
64229;PMS5003;50547;49.498;0.092;2023-09-12T10:33:40;4;4;
64229;PMS5003;50547;49.498;0.092;2023-09-12T10:36:11;4;4;
64229;PMS5003;50547;49.498;0.092;2023-09-12T10:38:42;4;4;
64229;PMS5003;50547;49.498;0.092;2023-09-12T10:41:13;4;4;
64229;PMS5003;50547;49.498;0.092;2023-09-12T10:43:44;4;4;
64229;PMS5003;50547;49.498;0.092;2023-09-12T10:46:13;4;4;
64229;PMS5003;50547;49.498;0.092;2023-09-12T10:48:42;4;4;
64229;PMS5003;50547;49.498;0.092;2023-09-12T10:51:12;4;4;
64229;PMS5003;50547;49.498;0.092;2023-09-12T10:53:45;4;4;
64229;PMS5003;50547;49.498;0.092;2023-09-12T10:56:16;4;4;
64229;PMS5003;50547;49.498;0.092;2023-09-12T10:59:19;4;4;
64229;PMS5003;50547;49.498;0.092;2023-09-12T11:01:48;4;4;
64229;PMS5003;50547;49.498;0.092;2023-09-12T11:04:33;4;4;
64229;PMS5003;50547;49.498;0.092;2023-09-12T11:07:02;4;4;
64229;PMS5003;50547;49.498;0.092;2023-09-12T11:10:31;4;4;
64229;PMS5003;50547;49.498;0.092;2023-09-12T11:13:00;4;4;
64229;PMS5003;50547;49.498;0.092;2023-09-12T11:15:29;3;3;
64229;PMS5003;50547;49.498;0.092;2023-09-12T11:18:00;3;3;
64229;PMS5003;50547;49.498;0.092;2023-09-12T11:21:02;4;4;
64229;PMS5003;50547;49.498;0.092;2023-09-12T11:23:32;4;4;
64229;PMS5003;50547;49.498;0.092;2023-09-12T11:26:02;4;4;
64229;PMS5003;50547;49.498;0.092;2023-09-12T11:28:29;4;4;
64229;PMS5003;50547;49.498;0.092;2023-09-12T11:30:58;4;4;
64229;PMS5003;50547;49.498;0.092;2023-09-12T11:33:27;4;4;
64229;PMS5003;50547;49.498;0.092;2023-09-12T11:35:57;4;4;
64229;PMS5003;50547;49.498;0.092;2023-09-12T11:38:26;3;3;
64229;PMS5003;50547;49.498;0.092;2023-09-12T11:40:56;4;4;
64229;PMS5003;50547;49.498;0.092;2023-09-12T11:43:27;4;4;
64229;PMS5003;50547;49.498;0.092;2023-09-12T11:45:57;4;4;
64229;PMS5003;50547;49.498;0.092;2023-09-12T11:48:28;4;4;
64229;PMS5003;50547;49.498;0.092;2023-09-12T11:50:57;4;4;
64229;PMS5003;50547;49.498;0.092;2023-09-12T11:53:27;4;4;
64229;PMS5003;50547;49.498;0.092;2023-09-12T11:55:57;4;4;
64229;PMS5003;50547;49.498;0.092;2023-09-12T11:58:27;4;4;
64229;PMS5003;50547;49.498;0.092;2023-09-12T12:00:57;3;3;
64229;PMS5003;50547;49.498;0.092;2023-09-12T12:03:27;4;4;
64229;PMS5003;50547;49.498;0.092;2023-09-12T12:05:56;3;3;
64229;PMS5003;50547;49.498;0.092;2023-09-12T12:08:26;4;4;
64229;PMS5003;50547;49.498;0.092;2023-09-12T12:10:55;3;3;
64229;PMS5003;50547;49.498;0.092;2023-09-12T12:13:25;3;3;
64229;PMS5003;50547;49.498;0.092;2023-09-12T12:15:54;4;4;
64229;PMS5003;50547;49.498;0.092;2023-09-12T12:18:23;4;4;
64229;PMS5003;50547;49.498;0.092;2023-09-12T12:20:52;3;3;
64229;PMS5003;50547;49.498;0.092;2023-09-12T12:23:21;4;4;
64229;PMS5003;50547;49.498;0.092;2023-09-12T12:25:50;4;4;
64229;PMS5003;50547;49.498;0.092;2023-09-12T12:28:20;3;3;
64229;PMS5003;50547;49.498;0.092;2023-09-12T12:30:50;3;3;
64229;PMS5003;50547;49.498;0.092;2023-09-12T12:33:21;4;4;
64229;PMS5003;50547;49.498;0.092;2023-09-12T12:35:58;4;4;
64229;PMS5003;50547;49.498;0.092;2023-09-12T12:38:30;4;4;
64229;PMS5003;50547;49.498;0.092;2023-09-12T12:41:01;4;4;
64229;PMS5003;50547;49.498;0.092;2023-09-12T12:43:30;4;4;
64229;PMS5003;50547;49.498;0.092;2023-09-12T12:46:00;4;4;
64229;PMS5003;50547;49.498;0.092;2023-09-12T12:48:29;4;4;
64229;PMS5003;50547;49.498;0.092;2023-09-12T12:50:59;4;4;
64229;PMS5003;50547;49.498;0.092;2023-09-12T12:53:41;4;4;
64229;PMS5003;50547;49.498;0.092;2023-09-12T12:56:12;4;4;
64229;PMS5003;50547;49.498;0.092;2023-09-12T12:58:46;4;4;
64229;PMS5003;50547;49.498;0.092;2023-09-12T13:01:16;4;4;
64229;PMS5003;50547;49.498;0.092;2023-09-12T13:03:46;4;4;
64229;PMS5003;50547;49.498;0.092;2023-09-12T13:06:15;4;4;
64229;PMS5003;50547;49.498;0.092;2023-09-12T13:08:46;4;4;
64229;PMS5003;50547;49.498;0.092;2023-09-12T13:11:16;4;4;
64229;PMS5003;50547;49.498;0.092;2023-09-12T13:13:46;4;4;
64229;PMS5003;50547;49.498;0.092;2023-09-12T13:16:26;4;4;
64229;PMS5003;50547;49.498;0.092;2023-09-12T13:18:57;4;4;
64229;PMS5003;50547;49.498;0.092;2023-09-12T13:21:26;5;5;
64229;PMS5003;50547;49.498;0.092;2023-09-12T13:23:55;4;4;
64229;PMS5003;50547;49.498;0.092;2023-09-12T13:26:24;4;4;
64229;PMS5003;50547;49.498;0.092;2023-09-12T13:28:53;4;4;
64229;PMS5003;50547;49.498;0.092;2023-09-12T13:31:22;4;4;
64229;PMS5003;50547;49.498;0.092;2023-09-12T13:33:51;4;4;
64229;PMS5003;50547;49.498;0.092;2023-09-12T13:36:20;4;4;
64229;PMS5003;50547;49.498;0.092;2023-09-12T13:38:49;4;4;
64229;PMS5003;50547;49.498;0.092;2023-09-12T13:41:18;4;4;
64229;PMS5003;50547;49.498;0.092;2023-09-12T13:43:47;4;4;
64229;PMS5003;50547;49.498;0.092;2023-09-12T13:46:16;4;4;
64229;PMS5003;50547;49.498;0.092;2023-09-12T13:48:45;4;4;
64229;PMS5003;50547;49.498;0.092;2023-09-12T13:51:14;4;4;
64229;PMS5003;50547;49.498;0.092;2023-09-12T13:53:43;4;4;
64229;PMS5003;50547;49.498;0.092;2023-09-12T13:56:12;4;4;
64229;PMS5003;50547;49.498;0.092;2023-09-12T13:58:41;4;4;
64229;PMS5003;50547;49.498;0.092;2023-09-12T14:01:10;4;4;
64229;PMS5003;50547;49.498;0.092;2023-09-12T14:03:39;4;4;
64229;PMS5003;50547;49.498;0.092;2023-09-12T14:06:08;4;4;
64229;PMS5003;50547;49.498;0.092;2023-09-12T14:08:37;4;4;
64229;PMS5003;50547;49.498;0.092;2023-09-12T14:11:06;4;4;
64229;PMS5003;50547;49.498;0.092;2023-09-12T14:13:35;4;4;
64229;PMS5003;50547;49.498;0.092;2023-09-12T14:16:04;4;4;
64229;PMS5003;50547;49.498;0.092;2023-09-12T14:18:33;3;3;
64229;PMS5003;50547;49.498;0.092;2023-09-12T14:20:59;3;3;
64229;PMS5003;50547;49.498;0.092;2023-09-12T14:23:28;3;3;
64229;PMS5003;50547;49.498;0.092;2023-09-12T14:25:57;3;3;
64229;PMS5003;50547;49.498;0.092;2023-09-12T14:28:26;4;4;
64229;PMS5003;50547;49.498;0.092;2023-09-12T14:30:55;4;4;
64229;PMS5003;50547;49.498;0.092;2023-09-12T14:33:24;3;3;
64229;PMS5003;50547;49.498;0.092;2023-09-12T14:35:53;3;3;
64229;PMS5003;50547;49.498;0.092;2023-09-12T14:38:22;3;3;
64229;PMS5003;50547;49.498;0.092;2023-09-12T14:40:52;3;3;
64229;PMS5003;50547;49.498;0.092;2023-09-12T14:43:21;3;3;
64229;PMS5003;50547;49.498;0.092;2023-09-12T14:45:50;3;3;
64229;PMS5003;50547;49.498;0.092;2023-09-12T14:48:25;3;3;
64229;PMS5003;50547;49.498;0.092;2023-09-12T14:50:54;3;3;
64229;PMS5003;50547;49.498;0.092;2023-09-12T14:53:23;4;4;
64229;PMS5003;50547;49.498;0.092;2023-09-12T14:55:52;4;4;
64229;PMS5003;50547;49.498;0.092;2023-09-12T14:58:21;3;3;
64229;PMS5003;50547;49.498;0.092;2023-09-12T15:00:50;5;5;
64229;PMS5003;50547;49.498;0.092;2023-09-12T15:03:19;8;8;
64229;PMS5003;50547;49.498;0.092;2023-09-12T15:05:48;4;4;
64229;PMS5003;50547;49.498;0.092;2023-09-12T15:08:17;10;10;
64229;PMS5003;50547;49.498;0.092;2023-09-12T15:10:46;4;4;
64229;PMS5003;50547;49.498;0.092;2023-09-12T15:13:15;3;3;
64229;PMS5003;50547;49.498;0.092;2023-09-12T15:15:41;3;3;
64229;PMS5003;50547;49.498;0.092;2023-09-12T15:18:10;3;3;
64229;PMS5003;50547;49.498;0.092;2023-09-12T15:20:39;3;3;
64229;PMS5003;50547;49.498;0.092;2023-09-12T15:23:09;3;3;
64229;PMS5003;50547;49.498;0.092;2023-09-12T15:25:39;3;3;
64229;PMS5003;50547;49.498;0.092;2023-09-12T15:28:10;3;3;
64229;PMS5003;50547;49.498;0.092;2023-09-12T15:30:39;3;3;
64229;PMS5003;50547;49.498;0.092;2023-09-12T15:33:08;3;3;
64229;PMS5003;50547;49.498;0.092;2023-09-12T15:35:37;3;3;
64229;PMS5003;50547;49.498;0.092;2023-09-12T15:38:06;3;3;
64229;PMS5003;50547;49.498;0.092;2023-09-12T15:40:35;3;3;
64229;PMS5003;50547;49.498;0.092;2023-09-12T15:43:04;3;3;
64229;PMS5003;50547;49.498;0.092;2023-09-12T15:45:33;3;3;
64229;PMS5003;50547;49.498;0.092;2023-09-12T15:48:02;4;4;
64229;PMS5003;50547;49.498;0.092;2023-09-12T15:50:28;4;4;
64229;PMS5003;50547;49.498;0.092;2023-09-12T15:52:57;3;3;
64229;PMS5003;50547;49.498;0.092;2023-09-12T15:55:26;3;3;
64229;PMS5003;50547;49.498;0.092;2023-09-12T15:57:55;3;3;
64229;PMS5003;50547;49.498;0.092;2023-09-12T16:00:24;3;3;
64229;PMS5003;50547;49.498;0.092;2023-09-12T16:02:53;3;3;
64229;PMS5003;50547;49.498;0.092;2023-09-12T16:05:22;4;4;
64229;PMS5003;50547;49.498;0.092;2023-09-12T16:07:48;3;3;
64229;PMS5003;50547;49.498;0.092;2023-09-12T16:10:16;3;3;
64229;PMS5003;50547;49.498;0.092;2023-09-12T16:12:45;4;4;
64229;PMS5003;50547;49.498;0.092;2023-09-12T16:15:13;4;4;
64229;PMS5003;50547;49.498;0.092;2023-09-12T16:17:42;4;4;
64229;PMS5003;50547;49.498;0.092;2023-09-12T16:20:11;4;4;
64229;PMS5003;50547;49.498;0.092;2023-09-12T16:22:41;4;4;
64229;PMS5003;50547;49.498;0.092;2023-09-12T16:25:10;4;4;
64229;PMS5003;50547;49.498;0.092;2023-09-12T16:27:39;4;4;
64229;PMS5003;50547;49.498;0.092;2023-09-12T16:30:08;3;3;
64229;PMS5003;50547;49.498;0.092;2023-09-12T16:32:38;3;3;
64229;PMS5003;50547;49.498;0.092;2023-09-12T16:35:08;4;4;
64229;PMS5003;50547;49.498;0.092;2023-09-12T16:37:39;4;4;
64229;PMS5003;50547;49.498;0.092;2023-09-12T16:40:09;4;4;
64229;PMS5003;50547;49.498;0.092;2023-09-12T16:42:38;3;3;
64229;PMS5003;50547;49.498;0.092;2023-09-12T16:45:08;4;4;
64229;PMS5003;50547;49.498;0.092;2023-09-12T16:47:37;4;4;
64229;PMS5003;50547;49.498;0.092;2023-09-12T16:50:07;3;3;
64229;PMS5003;50547;49.498;0.092;2023-09-12T16:52:36;4;4;